| time (UTC) | temp F | wind direction | speed MPH | gust MPH | rain 1hr in | rain 24hr in | rain mn in | humidity % | barometer mb |
| 20260506154529 | 71 | 32.0 | 56.0 | 0.00 | 0.00 | 0.00 | 43 | 981.5 | |
| 20260506153529 | 71 | 32.0 | 56.0 | 0.00 | 0.00 | 0.00 | 43 | 981.5 | |
| 20260506152530 | 71 | 32.0 | 56.0 | 0.00 | 0.00 | 0.00 | 43 | 981.5 | |
| 20260506151529 | 71 | 32.0 | 64.0 | 0.00 | 0.00 | 0.00 | 43 | 981.5 | |
| 20260506150529 | 71 | 32.0 | 64.0 | 0.00 | 0.00 | 0.00 | 43 | 981.5 | |
| 20260506145529 | 71 | 32.0 | 64.0 | 0.00 | 0.00 | 0.00 | 43 | 981.5 | |
| 20260506144529 | 71 | 32.0 | 64.0 | 0.00 | 0.00 | 0.00 | 43 | 981.5 | |
| 20260506143529 | 71 | 32.0 | 64.0 | 0.00 | 0.00 | 0.00 | 43 | 981.5 | |
| 20260506142529 | 71 | 32.0 | 64.0 | 0.00 | 0.00 | 0.00 | 43 | 981.5 | |
| 20260506141529 | 71 | 40.0 | 72.0 | 0.00 | 0.00 | 0.00 | 43 | 981.5 | |
| 20260506140530 | 71 | 40.0 | 72.0 | 0.00 | 0.00 | 0.00 | 43 | 981.5 | |
| 20260506135529 | 0 | 40.0 | 72.0 | 0.00 | 0.00 | 0.00 | |||
| 20260506134529 | 0 | 40.0 | 72.0 | 0.00 | 0.00 | 0.00 | |||
| 20260506133529 | 0 | 40.0 | 72.0 | 0.00 | 0.00 | 0.00 | |||
| 20260506131629 | 73 | 40.0 | 72.0 | 0.00 | 0.00 | 0.00 | 42 | 981.7 | |
| 20260506130628 | 70 | 40.0 | 72.0 | 0.00 | 0.00 | 0.00 | 47 | 982.1 | |
| 20260506125628 | 70 | 48.0 | 81.0 | 0.00 | 0.00 | 0.00 | 47 | 982.1 | |
| 20260506124628 | 70 | 48.0 | 81.0 | 0.00 | 0.00 | 0.00 | 47 | 982.1 | |
| 20260506123629 | 70 | 48.0 | 81.0 | 0.00 | 0.00 | 0.00 | 47 | 982.1 | |
| 20260506122628 | 69 | 48.0 | 81.0 | 0.00 | 0.00 | 0.00 | 53 | 981.8 | |
| 20260506121628 | 69 | 48.0 | 81.0 | 0.00 | 0.00 | 0.00 | 53 | 981.8 | |
| 20260506120629 | 69 | 48.0 | 81.0 | 0.00 | 0.00 | 0.00 | 53 | 981.8 | |
| 20260506115628 | 69 | 40.0 | 72.0 | 0.00 | 0.00 | 0.00 | 53 | 981.8 | |
| 20260506114628 | 66 | 40.0 | 72.0 | 0.00 | 0.00 | 0.00 | 53 | 981.7 | |
| 20260506113628 | 66 | 40.0 | 81.0 | 0.00 | 0.00 | 0.00 | 53 | 981.7 | |
| 20260506112629 | 66 | 40.0 | 81.0 | 0.00 | 0.00 | 0.00 | 53 | 981.7 | |
| 20260506111629 | 66 | 48.0 | 81.0 | 0.00 | 0.00 | 0.00 | 53 | 981.7 | |
| 20260506110628 | 66 | 48.0 | 81.0 | 0.00 | 0.00 | 0.00 | 53 | 981.7 | |
| 20260506105628 | 66 | 48.0 | 81.0 | 0.00 | 0.00 | 0.00 | 53 | 981.7 | |
| 20260506104629 | 66 | 48.0 | 81.0 | 0.00 | 0.00 | 0.00 | 53 | 981.7 | |
| 20260506103629 | 66 | 40.0 | 72.0 | 0.00 | 0.00 | 0.00 | 53 | 981.7 | |
| 20260506102628 | 66 | 40.0 | 72.0 | 0.00 | 0.00 | 0.00 | 53 | 981.7 | |
| 20260506101628 | 66 | 40.0 | 72.0 | 0.00 | 0.00 | 0.00 | 53 | 981.7 | |
| 20260506100629 | 66 | 40.0 | 72.0 | 0.00 | 0.00 | 0.00 | 53 | 981.7 | |
| 20260506095628 | 66 | 48.0 | 81.0 | 0.00 | 0.00 | 0.00 | 53 | 981.7 | |
| 20260506094629 | 66 | 48.0 | 81.0 | 0.00 | 0.00 | 0.00 | 53 | 981.7 | |
| 20260506093628 | 69 | 48.0 | 81.0 | 0.00 | 0.00 | 0.00 | 54 | 981.4 | |
| 20260506092628 | 69 | 48.0 | 81.0 | 0.00 | 0.00 | 0.00 | 54 | 981.4 | |
| 20260506091628 | 69 | 48.0 | 72.0 | 0.00 | 0.00 | 0.00 | 54 | 981.4 | |
| 20260506090629 | 69 | 48.0 | 72.0 | 0.00 | 0.00 | 0.00 | 54 | 981.4 | |
| 20260506085629 | 66 | 40.0 | 64.0 | 0.00 | 0.00 | 0.00 | 63 | 981.5 | |
| 20260506084628 | 66 | 40.0 | 64.0 | 0.00 | 0.00 | 0.00 | 63 | 981.5 | |
| 20260506083628 | 66 | 40.0 | 64.0 | 0.00 | 0.00 | 0.00 | 63 | 981.5 | |
| 20260506082628 | 66 | 40.0 | 64.0 | 0.00 | 0.00 | 0.00 | 63 | 981.5 | |
| 20260506081628 | 64 | 40.0 | 64.0 | 0.00 | 0.00 | 0.00 | 77 | 981.6 | |
| 20260506080629 | 64 | 40.0 | 64.0 | 0.00 | 0.00 | 0.00 | 77 | 981.6 | |
| 20260506072628 | 58 | 24.0 | 48.0 | 0.00 | 0.00 | 0.00 | 100 | 981.4 | |
| 20260506071629 | 58 | 24.0 | 48.0 | 0.00 | 0.00 | 0.00 | 100 | 981.4 | |
| 20260506070628 | 58 | 24.0 | 48.0 | 0.00 | 0.00 | 0.00 | 100 | 981.4 | |
| 20260506061628 | 58 | 16.0 | 40.0 | 0.00 | 0.00 | 0.00 | 100 | 981.4 | |
| 20260506060629 | 52 | 16.0 | 40.0 | 0.00 | 0.00 | 0.00 | 100 | 981.2 | |
| 20260506050628 | 52 | 8.0 | 24.0 | 0.00 | 0.00 | 0.00 | 100 | 981.2 | |
| 20260506044628 | 54 | 8.0 | 24.0 | 0.00 | 0.00 | 0.00 | 100 | 981.6 | |
| 20260506043628 | 54 | 8.0 | 24.0 | 0.00 | 0.00 | 0.00 | 100 | 981.6 | |
| 20260506042628 | 54 | 8.0 | 24.0 | 0.00 | 0.00 | 0.00 | 100 | 981.6 | |
| 20260506041629 | 54 | 8.0 | 24.0 | 0.00 | 0.00 | 0.00 | 100 | 981.6 | |
| 20260506040628 | 54 | 8.0 | 24.0 | 0.00 | 0.00 | 0.00 | 100 | 981.6 | |
| 20260506035629 | 54 | 16.0 | 32.0 | 0.00 | 0.00 | 0.00 | 100 | 981.6 | |
| 20260506034629 | 54 | 16.0 | 32.0 | 0.00 | 0.00 | 0.00 | 100 | 981.6 | |
| 20260506033628 | 54 | 16.0 | 32.0 | 0.00 | 0.00 | 0.00 | 100 | 981.6 | |
| 20260506032628 | 54 | 16.0 | 32.0 | 0.00 | 0.00 | 0.00 | 100 | 981.6 | |
| 20260506031628 | 54 | 16.0 | 32.0 | 0.00 | 0.00 | 0.00 | 100 | 981.6 | |
| 20260506030628 | 54 | 16.0 | 32.0 | 0.00 | 0.00 | 0.00 | 100 | 981.6 | |
| 20260506025628 | 54 | 16.0 | 32.0 | 0.00 | 0.00 | 0.00 | 100 | 981.6 | |
| 20260506024628 | 54 | 16.0 | 32.0 | 0.00 | 0.00 | 0.00 | 100 | 981.6 | |
| 20260506023628 | 54 | 16.0 | 32.0 | 0.00 | 0.00 | 0.00 | 100 | 981.6 | |
| 20260506022629 | 54 | 16.0 | 32.0 | 0.00 | 0.00 | 0.00 | 100 | 981.6 | |
| 20260506021628 | 54 | 16.0 | 32.0 | 0.00 | 0.00 | 0.00 | 100 | 981.6 | |
| 20260506020628 | 54 | 16.0 | 32.0 | 0.00 | 0.00 | 0.00 | 100 | 981.6 | |
| 20260506015628 | 54 | 16.0 | 32.0 | 0.00 | 0.00 | 0.00 | 100 | 981.6 | |
| 20260506014628 | 54 | 16.0 | 32.0 | 0.00 | 0.00 | 0.00 | 100 | 981.6 | |
| 20260506013628 | 54 | 16.0 | 32.0 | 0.00 | 0.00 | 0.00 | 100 | 981.6 | |
| 20260506012628 | 54 | 16.0 | 32.0 | 0.00 | 0.00 | 0.00 | 100 | 981.6 | |
| 20260506011628 | 54 | 16.0 | 32.0 | 0.00 | 0.00 | 0.00 | 100 | 981.6 | |
| 20260506010628 | 54 | 16.0 | 32.0 | 0.00 | 0.00 | 0.00 | 100 | 981.6 | |
| 20260506005628 | 54 | 16.0 | 32.0 | 0.00 | 0.00 | 0.00 | 100 | 981.6 | |
| 20260506004628 | 54 | 16.0 | 32.0 | 0.00 | 0.00 | 0.00 | 100 | 981.6 | |
| 20260506003628 | 55 | 16.0 | 32.0 | 0.00 | 0.00 | 0.00 | 100 | 981.6 | |
| 20260506002628 | 55 | 16.0 | 32.0 | 0.00 | 0.00 | 0.00 | 100 | 981.6 | |
| 20260506001628 | 55 | 16.0 | 32.0 | 0.00 | 0.00 | 0.00 | 100 | 981.6 | |
| 20260506000628 | 55 | 16.0 | 32.0 | 0.00 | 0.00 | 0.00 | 100 | 981.6 | |
| 20260505235628 | 55 | 16.0 | 32.0 | 0.00 | 0.00 | 0.00 | 100 | 981.6 | |
| 20260505234628 | 55 | 16.0 | 32.0 | 0.00 | 0.00 | 0.00 | 100 | 981.6 | |
| 20260505233629 | 55 | 16.0 | 32.0 | 0.00 | 0.00 | 0.00 | 100 | 981.6 | |
| 20260505232628 | 55 | 16.0 | 32.0 | 0.00 | 0.00 | 0.00 | 100 | 981.6 | |
| 20260505231628 | 55 | 16.0 | 32.0 | 0.00 | 0.00 | 0.00 | 100 | 981.6 | |
| 20260505230628 | 0 | 16.0 | 32.0 | 0.00 | 0.00 | 0.00 | |||
| 20260505225628 | 0 | 16.0 | 32.0 | 0.00 | 0.00 | 0.00 | |||
| 20260505221823 | 56 | 16.0 | 32.0 | 0.00 | 0.00 | 0.00 | 100 | 982.4 | |
| 20260505220823 | 56 | 16.0 | 32.0 | 0.00 | 0.00 | 0.00 | 100 | 982.4 | |
| 20260505215823 | 56 | 16.0 | 32.0 | 0.00 | 0.00 | 0.00 | 100 | 982.4 | |
| 20260505214823 | 57 | 16.0 | 24.0 | 0.00 | 0.00 | 0.00 | 100 | 982.7 | |
| 20260505213823 | 57 | 16.0 | 24.0 | 0.00 | 0.00 | 0.00 | 100 | 982.7 | |
| 20260505212823 | 57 | 16.0 | 24.0 | 0.00 | 0.00 | 0.00 | 100 | 982.7 | |
| 20260505211823 | 57 | 16.0 | 24.0 | 0.00 | 0.00 | 0.00 | 100 | 982.7 | |
| 20260505210823 | 57 | 16.0 | 32.0 | 0.00 | 0.00 | 0.00 | 100 | 982.7 | |
| 20260505205823 | 58 | 16.0 | 32.0 | 0.00 | 0.00 | 0.00 | 100 | 982.6 | |
| 20260505204823 | 58 | 16.0 | 32.0 | 0.00 | 0.00 | 0.00 | 100 | 982.6 | |
| 20260505203823 | 58 | 16.0 | 32.0 | 0.00 | 0.00 | 0.00 | 100 | 982.6 | |
| 20260505202823 | 58 | 16.0 | 32.0 | 0.00 | 0.00 | 0.00 | 100 | 982.6 | |
| 20260505201823 | 59 | 16.0 | 32.0 | 0.00 | 0.00 | 0.00 | 100 | 982.4 | |
| 20260505200824 | 59 | 16.0 | 40.0 | 0.00 | 0.00 | 0.00 | 100 | 982.4 | |
| 20260505195823 | 59 | 16.0 | 40.0 | 0.00 | 0.00 | 0.00 | 100 | 982.4 | |
| 20260505194823 | 59 | 16.0 | 40.0 | 0.00 | 0.00 | 0.00 | 100 | 982.4 | |
| 20260505193823 | 59 | 16.0 | 40.0 | 0.00 | 0.00 | 0.00 | 100 | 982.4 | |
| 20260505192823 | 59 | 16.0 | 48.0 | 0.00 | 0.00 | 0.00 | 100 | 982.4 | |
| 20260505191823 | 59 | 16.0 | 48.0 | 0.00 | 0.00 | 0.00 | 100 | 982.4 | |
| 20260505190823 | 59 | 24.0 | 56.0 | 0.00 | 0.00 | 0.00 | 100 | 982.4 | |
| 20260505185824 | 65 | 24.0 | 56.0 | 0.00 | 0.00 | 0.00 | 80 | 982.2 | |
| 20260505184823 | 65 | 24.0 | 64.0 | 0.00 | 0.00 | 0.00 | 80 | 982.2 | |
| 20260505183823 | 65 | 24.0 | 64.0 | 0.00 | 0.00 | 0.00 | 80 | 982.2 | |
| 20260505182823 | 65 | 24.0 | 72.0 | 0.00 | 0.00 | 0.00 | 80 | 982.2 | |
| 20260505181823 | 65 | 24.0 | 72.0 | 0.00 | 0.00 | 0.00 | 80 | 982.2 | |
| 20260505180824 | 65 | 32.0 | 72.0 | 0.00 | 0.00 | 0.00 | 80 | 982.2 | |
| 20260505175823 | 65 | 32.0 | 72.0 | 0.00 | 0.00 | 0.00 | 80 | 982.2 | |
| 20260505174824 | 65 | 32.0 | 56.0 | 0.00 | 0.00 | 0.00 | 80 | 982.2 | |
| 20260505173823 | 65 | 32.0 | 56.0 | 0.00 | 0.00 | 0.00 | 80 | 982.2 | |
| 20260505172823 | 65 | 32.0 | 56.0 | 0.00 | 0.00 | 0.00 | 80 | 982.2 | |
| 20260505171823 | 65 | 32.0 | 56.0 | 0.00 | 0.00 | 0.00 | 80 | 982.2 | |
| 20260505170823 | 65 | 32.0 | 56.0 | 0.00 | 0.00 | 0.00 | 80 | 982.2 | |
| 20260505165824 | 65 | 32.0 | 56.0 | 0.00 | 0.00 | 0.00 | 80 | 982.2 | |
| 20260505164823 | 73 | 24.0 | 48.0 | 0.00 | 0.00 | 0.00 | 52 | 981.5 | |
| 20260505163823 | 73 | 24.0 | 48.0 | 0.00 | 0.00 | 0.00 | 52 | 981.5 | |
| 20260505162823 | 73 | 24.0 | 48.0 | 0.00 | 0.00 | 0.00 | 52 | 981.5 | |
| 20260505161824 | 73 | 24.0 | 48.0 | 0.00 | 0.00 | 0.00 | 52 | 981.5 | |
| 20260505160824 | 73 | 24.0 | 48.0 | 0.00 | 0.00 | 0.00 | 52 | 981.5 |